Groningen, Netherlands
Current Conditions -  °F | °C
As of 7:55 AM on Tuesday 21 Oct 2014 (Local Time) from EHGG Reporting Station
Broken Clouds Broken Clouds  
Wind Chill: 55°   Ceiling: 900
Heat Index: 55°   Visibility: 6mi
Dew Point: 52°   Wind: 16mph
Humidity: 88%   Direction: 200°SSW
Pressure: 29.65"   Gusts: NA
Location:  53.22°N, 6.56°E
Report Text: EHGG 210555Z AUTO 20014KT 170V230 9000 SCT008 BKN009 BKN01013/11 Q1004 NOSIG
Loading
Personal Weather Stations






























Interactive Weather Map
Tropical Storm Tracking
New forecast layout! Learn more

10-Day Weather Forecast

Advertisements
Track Severe Weather on mobile